createdAt,value
2022-12-11T00:01:20.552Z,3.72
2022-12-11T00:04:05.991Z,8.70
2022-12-11T00:06:52.975Z,3.35
2022-12-11T00:09:38.633Z,1.58
2022-12-11T00:12:23.989Z,1.05
2022-12-11T00:15:09.968Z,1.23
2022-12-11T00:17:56.909Z,1.00
2022-12-11T00:20:42.929Z,1.30
2022-12-11T00:23:28.787Z,3.80
2022-12-11T00:26:15.647Z,9.57
2022-12-11T00:29:00.891Z,3.22
2022-12-11T00:31:46.381Z,2.60
2022-12-11T00:34:31.604Z,1.73
2022-12-11T00:37:17.077Z,2.95
2022-12-11T00:40:02.552Z,4.18
2022-12-11T00:42:47.789Z,3.85
2022-12-11T00:45:37.278Z,2.55
2022-12-11T00:48:22.730Z,1.75
2022-12-11T00:51:08.456Z,1.38
2022-12-11T00:53:54.030Z,4.25
2022-12-11T00:56:39.364Z,6.45
2022-12-11T00:59:24.694Z,7.10
2022-12-11T01:02:10.646Z,4.47
2022-12-11T01:04:56.186Z,8.13
2022-12-11T01:07:41.914Z,4.28
2022-12-11T01:10:27.827Z,3.95
2022-12-11T01:13:13.033Z,1.83
2022-12-11T01:15:58.641Z,2.95
2022-12-11T01:18:44.126Z,4.35
2022-12-11T01:21:29.631Z,2.45
2022-12-11T01:24:15.043Z,3.25
2022-12-11T01:27:00.481Z,1.10
2022-12-11T01:29:45.946Z,2.55
2022-12-11T01:32:32.335Z,2.03
2022-12-11T01:35:19.061Z,2.85
2022-12-11T01:38:04.711Z,2.67
2022-12-11T01:40:51.574Z,1.77
2022-12-11T01:44:06.142Z,1.50
2022-12-11T01:46:51.528Z,7.03
2022-12-11T01:49:39.308Z,10.35
2022-12-11T01:52:25.052Z,2.90
2022-12-11T01:55:11.003Z,2.10
2022-12-11T01:57:56.741Z,1.60
2022-12-11T02:00:42.044Z,3.10
2022-12-11T02:03:27.592Z,1.88
2022-12-11T02:06:38.006Z,2.47
2022-12-11T02:09:26.953Z,2.17
2022-12-11T02:12:31.157Z,2.85
2022-12-11T02:15:22.840Z,2.58
2022-12-11T02:18:33.521Z,1.60
2022-12-11T02:21:27.123Z,1.95
2022-12-11T02:24:57.611Z,0.90
2022-12-11T02:27:48.742Z,0.80
2022-12-11T02:30:39.728Z,1.30
2022-12-11T02:33:34.301Z,0.60
2022-12-11T02:36:24.557Z,3.60
2022-12-11T02:39:13.451Z,2.00
2022-12-11T02:41:59.982Z,1.02
2022-12-11T02:44:48.927Z,0.70
2022-12-11T02:47:34.340Z,2.00
2022-12-11T02:50:23.508Z,1.15
2022-12-11T02:53:13.230Z,1.30
2022-12-11T02:56:10.383Z,4.55
2022-12-11T02:59:00.685Z,1.88
2022-12-11T03:01:47.035Z,1.65
2022-12-11T03:04:35.298Z,5.95
2022-12-11T03:07:27.347Z,4.15
2022-12-11T03:10:18.950Z,2.67
2022-12-11T03:13:05.103Z,1.00
2022-12-11T03:16:11.175Z,4.88
2022-12-11T03:19:09.531Z,1.17
2022-12-11T03:22:03.624Z,2.58
2022-12-11T03:24:48.893Z,3.10
2022-12-11T03:27:53.378Z,3.08
2022-12-11T03:30:40.983Z,0.80
2022-12-11T03:33:32.937Z,1.17
2022-12-11T03:36:24.435Z,1.75
2022-12-11T03:39:16.854Z,1.48
2022-12-11T03:42:06.682Z,1.80
2022-12-11T03:44:54.604Z,1.92
2022-12-11T03:47:42.195Z,2.47
2022-12-11T03:50:30.720Z,2.72
2022-12-11T03:53:18.630Z,1.75
2022-12-11T03:56:10.449Z,0.95
2022-12-11T03:58:56.088Z,0.90
2022-12-11T04:01:42.196Z,0.60
2022-12-11T04:04:27.626Z,0.60
2022-12-11T04:07:13.034Z,0.68
2022-12-11T04:10:00.212Z,0.50
2022-12-11T04:12:45.407Z,0.55
2022-12-11T04:15:30.681Z,0.40
2022-12-11T04:18:34.610Z,0.73
2022-12-11T04:21:39.871Z,0.30
2022-12-11T04:24:25.602Z,0.30
2022-12-11T04:27:11.006Z,0.40
2022-12-11T04:29:56.753Z,0.75
2022-12-11T04:32:42.241Z,2.85
2022-12-11T04:35:27.656Z,1.92
2022-12-11T04:38:13.148Z,1.20
2022-12-11T04:41:07.125Z,0.57
2022-12-11T04:43:52.552Z,1.10
2022-12-11T04:46:37.911Z,0.40
2022-12-11T04:49:23.653Z,0.32
2022-12-11T04:52:09.410Z,0.20
2022-12-11T04:54:55.056Z,0.50
2022-12-11T04:57:40.902Z,0.45
2022-12-11T05:00:27.213Z,0.45
2022-12-11T05:03:12.954Z,0.40
2022-12-11T05:05:58.675Z,0.50
2022-12-11T05:08:45.487Z,0.40
2022-12-11T05:11:30.787Z,2.15
2022-12-11T05:14:16.197Z,0.40
2022-12-11T05:17:01.632Z,0.10
2022-12-11T05:19:49.041Z,0.32
2022-12-11T05:22:34.531Z,0.30
2022-12-11T05:25:19.766Z,0.43
2022-12-11T05:28:05.556Z,0.20
2022-12-11T05:31:23.984Z,0.77
2022-12-11T05:34:09.234Z,1.15
2022-12-11T05:36:54.667Z,0.40
2022-12-11T05:39:40.135Z,1.27
2022-12-11T05:42:28.827Z,0.60
2022-12-11T05:45:14.894Z,0.20
2022-12-11T05:48:00.239Z,0.43
2022-12-11T05:50:55.817Z,0.75
2022-12-11T05:53:42.329Z,0.32
2022-12-11T05:56:30.245Z,0.10
2022-12-11T05:59:15.584Z,0.30
2022-12-11T06:02:01.143Z,0.20
2022-12-11T06:04:46.980Z,0.30
2022-12-11T06:07:32.335Z,0.40
2022-12-11T06:10:17.746Z,0.30
2022-12-11T06:13:03.633Z,0.25
2022-12-11T06:15:49.564Z,0.22
2022-12-11T06:18:39.121Z,0.22
2022-12-11T06:21:27.995Z,0.20
2022-12-11T06:24:14.026Z,0.38
2022-12-11T06:26:59.391Z,0.20
2022-12-11T06:29:44.829Z,0.15
2022-12-11T06:32:30.298Z,0.30
2022-12-11T06:35:15.961Z,0.20
2022-12-11T06:38:01.922Z,0.35
2022-12-11T06:40:54.877Z,0.20
2022-12-11T06:43:42.188Z,0.13
2022-12-11T06:46:27.619Z,0.40
2022-12-11T06:49:13.396Z,0.20
2022-12-11T06:51:58.695Z,0.40
2022-12-11T06:54:44.135Z,0.82
2022-12-11T06:57:29.392Z,0.40
2022-12-11T07:00:15.935Z,0.30
2022-12-11T07:03:01.344Z,0.15
2022-12-11T07:05:46.820Z,0.20
2022-12-11T07:08:32.061Z,0.13
2022-12-11T07:11:19.220Z,0.22
2022-12-11T07:14:04.754Z,0.47
2022-12-11T07:16:50.150Z,0.55
2022-12-11T07:19:35.461Z,10.35
2022-12-11T07:22:21.683Z,15.38
2022-12-11T07:25:07.918Z,4.18
2022-12-11T07:27:53.497Z,1.75
2022-12-11T07:30:39.558Z,4.85
2022-12-11T07:33:24.949Z,8.60
2022-12-11T07:36:12.268Z,10.40
2022-12-11T07:38:59.237Z,7.63
2022-12-11T07:41:46.001Z,22.60
2022-12-11T07:44:31.551Z,33.47
2022-12-11T07:47:17.153Z,26.27
2022-12-11T07:50:02.665Z,46.30
2022-12-11T07:52:49.005Z,35.30
2022-12-11T07:55:34.979Z,34.55
2022-12-11T07:58:20.774Z,40.45
2022-12-11T08:01:10.620Z,8.30
2022-12-11T08:03:56.721Z,10.68
2022-12-11T08:06:45.603Z,16.15
2022-12-11T08:09:35.631Z,14.75
2022-12-11T08:12:22.415Z,25.15
2022-12-11T08:15:12.065Z,34.58
2022-12-11T08:17:58.175Z,11.82
2022-12-11T08:20:43.872Z,12.77
2022-12-11T08:23:30.611Z,8.13
2022-12-11T08:26:28.122Z,3.60
2022-12-11T08:29:15.364Z,1.10
2022-12-11T08:32:01.570Z,3.38
2022-12-11T08:34:47.405Z,9.50
2022-12-11T08:37:37.276Z,9.07
2022-12-11T08:40:23.780Z,6.35
2022-12-11T08:43:10.538Z,10.73
2022-12-11T08:45:56.797Z,9.95
2022-12-11T08:48:43.808Z,11.48
2022-12-11T08:51:30.758Z,12.55
2022-12-11T08:54:17.439Z,8.15
2022-12-11T08:57:04.282Z,3.90
2022-12-11T08:59:52.203Z,4.88
2022-12-11T09:02:38.662Z,7.47
2022-12-11T09:05:24.742Z,6.45
2022-12-11T09:08:11.408Z,2.67
2022-12-11T09:11:02.347Z,3.05
2022-12-11T09:13:48.612Z,2.55
2022-12-11T09:16:37.779Z,4.22
2022-12-11T09:19:26.678Z,3.60
2022-12-11T09:22:16.204Z,3.28
2022-12-11T09:25:01.571Z,3.13
2022-12-11T09:27:47.201Z,3.97
2022-12-11T09:30:33.164Z,4.07
2022-12-11T09:33:19.022Z,3.63
2022-12-11T09:36:05.847Z,3.60
2022-12-11T09:38:52.232Z,3.45
2022-12-11T09:41:40.734Z,5.18
2022-12-11T09:44:43.507Z,3.42
2022-12-11T09:47:40.199Z,7.80
2022-12-11T09:50:27.942Z,5.95
2022-12-11T09:53:27.780Z,2.30
2022-12-11T09:56:25.893Z,1.85
2022-12-11T09:59:30.327Z,7.20
2022-12-11T10:02:42.526Z,12.73
2022-12-11T10:06:09.331Z,9.63
2022-12-11T10:09:20.575Z,5.35
2022-12-11T10:12:23.097Z,3.40
2022-12-11T10:15:31.716Z,2.83
2022-12-11T10:18:21.315Z,3.75
2022-12-11T10:21:07.348Z,6.65
2022-12-11T10:23:58.804Z,8.13
2022-12-11T10:26:47.088Z,9.20
2022-12-11T10:29:34.289Z,6.63
2022-12-11T10:32:29.684Z,6.07
2022-12-11T10:35:28.153Z,6.70
2022-12-11T10:38:15.698Z,7.70
2022-12-11T10:41:04.566Z,5.60
2022-12-11T10:43:51.953Z,11.52
2022-12-11T10:46:37.569Z,9.38
2022-12-11T10:49:30.268Z,16.40
2022-12-11T10:55:21.514Z,9.50
2022-12-11T10:58:28.457Z,8.85
2022-12-11T11:01:17.100Z,9.23
2022-12-11T11:04:14.651Z,6.57
2022-12-11T11:07:12.993Z,4.60
2022-12-11T11:10:11.175Z,9.88
2022-12-11T11:13:02.356Z,13.73
2022-12-11T11:15:48.147Z,8.15
2022-12-11T11:18:34.775Z,7.03
2022-12-11T11:21:25.180Z,8.63
2022-12-11T11:24:26.140Z,13.63
2022-12-11T11:27:29.978Z,10.25
2022-12-11T11:30:52.460Z,5.45
2022-12-11T11:34:00.238Z,5.90
2022-12-11T11:36:57.583Z,9.30
2022-12-11T11:39:45.227Z,4.70
2022-12-11T11:42:39.092Z,3.40
2022-12-11T11:45:31.907Z,3.05
2022-12-11T11:48:44.092Z,5.10
2022-12-11T11:51:34.614Z,4.97
2022-12-11T11:54:41.991Z,4.68
2022-12-11T11:57:49.904Z,7.10
2022-12-11T12:00:35.579Z,4.45
2022-12-11T12:03:23.883Z,3.97
2022-12-11T12:06:28.175Z,5.07
2022-12-11T12:09:19.353Z,5.22
2022-12-11T12:12:34.105Z,4.40
2022-12-11T12:15:34.787Z,3.33
2022-12-11T12:18:51.453Z,4.53
2022-12-11T12:21:42.286Z,3.08
2022-12-11T12:24:46.361Z,3.47
2022-12-11T12:27:55.780Z,4.18
2022-12-11T12:30:52.192Z,3.40
2022-12-11T12:34:14.362Z,4.32
2022-12-11T12:37:10.950Z,4.17
2022-12-11T12:40:15.336Z,3.78
2022-12-11T12:43:39.843Z,3.15
2022-12-11T12:46:47.135Z,5.35
2022-12-11T12:49:43.379Z,4.10
2022-12-11T14:24:14.168Z,13.57
2022-12-11T14:27:00.176Z,5.30
2022-12-11T14:29:45.985Z,6.00
2022-12-11T14:32:37.297Z,4.80
2022-12-11T14:35:35.654Z,5.85
2022-12-11T14:38:28.674Z,5.05
2022-12-11T14:41:47.952Z,6.90
2022-12-11T14:44:53.243Z,4.45
2022-12-11T14:47:43.329Z,5.00
2022-12-11T14:50:52.226Z,5.47
2022-12-11T14:53:44.056Z,7.45
2022-12-11T14:56:30.853Z,3.83
2022-12-11T14:59:26.902Z,6.63
2022-12-11T15:02:24.205Z,4.82
2022-12-11T15:08:03.973Z,6.25
2022-12-11T15:11:11.430Z,5.28
2022-12-11T15:13:59.605Z,8.90
2022-12-11T15:16:47.880Z,10.38
2022-12-11T15:19:35.016Z,11.27
2022-12-11T15:22:26.451Z,9.40
2022-12-11T15:25:22.310Z,7.13
2022-12-11T15:28:27.365Z,9.05
2022-12-11T15:31:28.007Z,9.07
2022-12-11T15:34:23.391Z,7.32
2022-12-11T15:37:30.131Z,9.15
2022-12-11T15:40:15.748Z,8.50
2022-12-11T15:43:02.558Z,7.00
2022-12-11T15:45:48.152Z,8.48
2022-12-11T15:48:34.378Z,7.38
2022-12-11T15:51:20.044Z,9.52
2022-12-11T15:54:07.966Z,6.95
2022-12-11T15:56:55.062Z,8.68
2022-12-11T15:59:40.671Z,12.27
2022-12-11T16:02:27.958Z,10.27
2022-12-11T16:05:15.388Z,7.15
2022-12-11T16:08:01.198Z,6.65
2022-12-11T16:10:48.183Z,15.50
2022-12-11T16:13:35.318Z,12.07
2022-12-11T16:16:21.972Z,10.98
2022-12-11T16:19:09.221Z,7.57
2022-12-11T16:21:54.893Z,9.77
2022-12-11T16:24:41.134Z,9.77
2022-12-11T16:27:27.168Z,9.10
2022-12-11T16:30:13.906Z,11.60
2022-12-11T16:32:59.737Z,7.85
2022-12-11T16:35:45.178Z,23.42
2022-12-11T16:38:30.599Z,16.08
2022-12-11T16:41:19.714Z,13.95
2022-12-11T16:44:05.718Z,10.57
2022-12-11T16:46:55.342Z,11.63
2022-12-11T16:49:46.157Z,12.82
2022-12-11T16:52:35.019Z,12.73
2022-12-11T16:55:22.443Z,12.27
2022-12-11T16:58:08.353Z,16.88
2022-12-11T17:01:02.451Z,21.88
2022-12-11T17:03:48.654Z,14.77
2022-12-11T17:06:37.037Z,26.45
2022-12-11T17:09:24.142Z,31.35
2022-12-11T17:12:13.171Z,13.05
2022-12-11T17:14:59.693Z,31.67
2022-12-11T17:17:55.322Z,20.10
2022-12-11T17:20:45.093Z,21.60
2022-12-11T17:23:31.065Z,21.80
2022-12-11T17:26:19.741Z,27.67
2022-12-11T17:29:05.398Z,35.55
2022-12-11T17:31:51.978Z,19.13
2022-12-11T17:34:38.762Z,15.32
2022-12-11T17:37:24.631Z,19.38
2022-12-11T17:40:10.803Z,19.35
2022-12-11T17:42:57.403Z,21.45
2022-12-11T17:45:45.232Z,20.75
2022-12-11T17:48:31.677Z,30.73
2022-12-11T17:51:22.024Z,20.58
2022-12-11T17:54:07.684Z,22.80
2022-12-11T17:56:52.850Z,24.52
2022-12-11T17:59:38.630Z,26.10
2022-12-11T18:02:24.410Z,15.93
2022-12-11T18:05:10.459Z,14.20
2022-12-11T18:07:58.105Z,24.05
2022-12-11T18:10:44.863Z,29.10
2022-12-11T18:13:30.600Z,33.72
2022-12-11T18:16:21.009Z,30.42
2022-12-11T18:19:10.185Z,26.88
2022-12-11T18:21:58.866Z,26.17
2022-12-11T18:24:48.980Z,27.05
2022-12-11T18:27:35.013Z,27.70
2022-12-11T18:30:26.476Z,19.08
2022-12-11T18:33:15.815Z,31.17
2022-12-11T18:36:01.900Z,21.48
2022-12-11T18:38:49.200Z,28.67
2022-12-11T18:41:35.516Z,15.73
2022-12-11T18:44:22.758Z,21.27
2022-12-11T18:47:09.118Z,33.45
2022-12-11T18:49:59.194Z,25.92
2022-12-11T18:52:47.800Z,30.70
2022-12-11T18:55:35.009Z,45.90
2022-12-11T18:58:21.243Z,32.80
2022-12-11T19:01:09.294Z,30.40
2022-12-11T19:04:02.020Z,28.88
2022-12-11T19:06:49.469Z,26.88
2022-12-11T19:09:38.249Z,35.22
2022-12-11T19:12:24.723Z,23.15
2022-12-11T19:15:11.245Z,25.27
2022-12-11T19:17:57.494Z,22.10
2022-12-11T19:20:57.787Z,24.13
2022-12-11T19:23:49.286Z,34.83
2022-12-11T19:26:35.789Z,37.53
2022-12-11T19:29:25.505Z,20.85
2022-12-11T19:32:11.122Z,20.42
2022-12-11T19:34:57.833Z,18.85
2022-12-11T19:37:47.722Z,21.70
2022-12-11T19:40:43.434Z,24.15
2022-12-11T19:43:30.099Z,28.90
2022-12-11T19:46:25.613Z,19.65
2022-12-11T19:49:12.741Z,17.75
2022-12-11T19:52:00.613Z,20.08
2022-12-11T19:54:50.793Z,16.88
2022-12-11T19:57:37.543Z,17.92
2022-12-11T20:00:24.631Z,19.98
2022-12-11T20:03:11.242Z,13.82
2022-12-11T20:06:06.584Z,18.60
2022-12-11T20:08:52.246Z,26.33
2022-12-11T20:11:41.012Z,19.98
2022-12-11T20:14:27.401Z,16.60
2022-12-11T20:17:15.094Z,19.27
2022-12-11T20:20:01.631Z,23.90
2022-12-11T20:22:48.678Z,23.10
2022-12-11T20:25:34.934Z,28.13
2022-12-11T20:28:22.352Z,21.25
2022-12-11T20:31:19.538Z,20.00
2022-12-11T20:34:06.964Z,12.05
2022-12-11T20:36:53.092Z,17.92
2022-12-11T20:39:41.997Z,19.33
2022-12-11T20:42:27.953Z,17.52
2022-12-11T20:45:14.595Z,19.85
2022-12-11T20:48:00.653Z,19.33
2022-12-11T20:50:47.257Z,21.33
2022-12-11T20:53:34.869Z,20.42
2022-12-11T20:56:20.779Z,28.77
2022-12-11T20:59:08.549Z,24.35
2022-12-11T21:01:54.787Z,36.08
2022-12-11T21:04:41.385Z,19.55
2022-12-11T21:07:30.247Z,28.27
2022-12-11T21:10:20.653Z,23.73
2022-12-11T21:13:06.229Z,23.52
2022-12-11T21:15:56.358Z,25.55
2022-12-11T21:18:51.930Z,18.27
2022-12-11T21:21:42.503Z,23.45
2022-12-11T21:24:30.281Z,20.80
2022-12-11T21:27:20.507Z,17.13
2022-12-11T21:30:12.491Z,18.88
2022-12-11T21:33:01.183Z,17.23
2022-12-11T21:35:54.302Z,20.70
2022-12-11T21:41:32.947Z,24.48
2022-12-11T21:47:30.114Z,18.80
2022-12-11T21:50:15.937Z,18.63
2022-12-11T21:53:02.106Z,18.17
2022-12-11T21:55:47.533Z,36.13
2022-12-11T21:58:33.347Z,20.30
2022-12-11T22:01:30.985Z,22.15
2022-12-11T22:04:16.967Z,48.88
2022-12-11T22:07:02.701Z,33.25
2022-12-11T22:09:48.262Z,24.60
2022-12-11T22:12:34.707Z,20.63
2022-12-11T22:15:20.561Z,21.85
2022-12-11T22:18:06.396Z,44.70
2022-12-11T22:20:52.491Z,32.17
2022-12-11T22:23:43.234Z,23.55
2022-12-11T22:26:29.280Z,28.15
2022-12-11T22:29:15.574Z,25.58
2022-12-11T22:32:01.387Z,21.52
2022-12-11T22:34:47.131Z,19.08
2022-12-11T22:37:32.957Z,27.90
2022-12-11T22:40:18.611Z,42.92
2022-12-11T22:43:04.167Z,29.35
2022-12-11T22:45:50.459Z,27.73
2022-12-11T22:48:36.455Z,30.02
2022-12-11T22:51:22.952Z,25.20
2022-12-11T22:54:08.858Z,22.77
2022-12-11T22:56:54.743Z,25.40
2022-12-11T22:59:41.492Z,24.83
2022-12-11T23:02:27.103Z,22.20
2022-12-11T23:05:13.058Z,28.42
2022-12-11T23:07:58.965Z,31.65
2022-12-11T23:10:44.957Z,39.78
2022-12-11T23:13:30.514Z,32.00
2022-12-11T23:16:16.591Z,33.10
2022-12-11T23:19:02.009Z,21.02
2022-12-11T23:21:48.218Z,27.75
2022-12-11T23:24:33.658Z,25.48
2022-12-11T23:27:19.757Z,23.38
2022-12-11T23:30:06.298Z,28.15
2022-12-11T23:32:51.841Z,21.83
2022-12-11T23:35:37.263Z,26.23
2022-12-11T23:38:23.082Z,26.70
2022-12-11T23:41:11.820Z,29.33
2022-12-11T23:43:57.824Z,29.35
2022-12-11T23:46:45.158Z,27.02
2022-12-11T23:49:31.158Z,18.58
2022-12-11T23:52:16.760Z,27.05
2022-12-11T23:55:02.650Z,22.60
2022-12-11T23:57:48.038Z,27.20
